Terminal Aerodrome Forecast
Issued by NWS Atlanta, GA

Home | Current Version | Previous Version | Text Only | Print | Product List | Glossary On
Versions: 1 2 3 4 5 6 7 8 9 10 11 12 13 14 15 16 17 18 19 20 21 22 23 24 25 26 27 28 29 30 31 32 33 34 35 36 37 38 39 40
714
FTAK31 PAJN 242335
TAFAHN
TAF
PAHN 242335Z 2500/2524 07015G25KT 6SM -RA BR SCT015 OVC025
      WS020/16040KT
      TEMPO 2500/2504 3SM -RA BR BKN010 OVC025
     FM250700 10010G20KT 2SM RA BR BKN008 OVC015 WS020/16040KT
     FM251500 10010G20KT 6SM -RA BR FEW008 OVC025
     FM252100 10012G20KT 3SM RA BR FEW004 BKN010 OVC020
      AMD LTD TO CLD VIS AND WIND=

USA.gov is the U.S. government's official web portal to all federal, state and local government web resources and services.